Wednesday, April 23, 2014, 7:41 PM EDT

KESN, Easton / Newman Field

Location: Easton, MD, United States Lat: 38.8
Local Time: 7:41 PM EDT (23:41 GMT) Lon: -76.067
Time Zone: US/Eastern Elev: 72 ft

Show me the last for .
Show Decoded

2014-04-23 18:45 METAR KESN 232245Z 31017G24KT 10SM SKC 14/04 A2986 =
2014-04-23 17:45 METAR KESN 232145Z 32017G21KT 10SM SKC 15/04 A2985 =
2014-04-23 16:50 METAR KESN 232050Z 32015G24KT 10SM SCT047 17/04 A2982 =
2014-04-23 15:50 METAR KESN 231950Z 31017G25KT 10SM SCT047 15/04 A2982 =
2014-04-23 14:50 METAR KESN 231850Z 33012G25KT 10SM SCT047 15/04 A2982 =
2014-04-23 13:50 METAR KESN 231750Z 32015G26KT 10SM SCT047 15/04 A2981 =
2014-04-23 12:50 METAR KESN 231650Z 31015G26KT 10SM SCT047 14/03 A2981 =
2014-04-23 11:50 METAR KESN 231550Z 32015G28KT 10SM SCT046 14/03 A2981 =
2014-04-23 10:50 METAR KESN 231450Z 31018G28KT 10SM SCT044 13/02 A2981 =
2014-04-23 09:50 METAR KESN 231350Z 34020G28KT 10SM SCT041 13/02 A2980 =
2014-04-23 08:50 METAR KESN 231250Z 33018G29KT 10SM SCT040 12/03 A2979 =
2014-04-23 07:50 METAR KESN 231150Z 32017G25KT 10SM FEW060 12/03 A2978 =
2014-04-23 06:50 METAR KESN 231050Z 32015G22KT 10SM SKC 12/04 A2975 =
2014-04-23 06:24 METAR KESN 231024Z AUTO 33009G18KT 10SM CLR 11/04 A2973 RMK AO2 T01110035 =
2014-04-23 06:22 METAR KESN 231023Z AUTO 33009G18KT 10SM CLR 11/04 A2973 =
2014-04-23 06:18 METAR KESN 231023Z AUTO 33009G18KT 10SM CLR 11/04 A2973 RMK AO2 T01110035 =
2014-04-23 06:03 METAR KESN 231003Z AUTO 34014G18KT 10SM CLR 11/03 A2972 RMK AO2 T01110030 =
2014-04-23 05:50 METAR KESN 230950Z 320012G19KT 10SM SKC 11/03 A2972 =
2014-04-23 05:43 METAR KESN 230943Z AUTO 34014G19KT 10SM CLR 11/03 A2972 RMK AO2 T01110026 =
2014-04-23 05:22 METAR KESN 230923Z AUTO 34007G15KT 10SM CLR 11/03 A2972 =
2014-04-23 05:21 METAR KESN 230923Z AUTO 34007G15KT 10SM CLR 11/03 A2972 RMK AO2 T01120027 =
2014-04-23 05:02 METAR KESN 230902Z AUTO 33013G20KT 10SM SCT070 12/03 A2972 RMK AO2 T01160030 =
2014-04-23 04:42 METAR KESN 230842Z AUTO 34011G16KT 10SM SCT070 12/03 A2972 =
2014-04-23 04:41 METAR KESN 230842Z AUTO 34011G16KT 10SM SCT070 12/03 A2972 RMK AO2 T01180034 =
2014-04-23 04:22 METAR KESN 230822Z AUTO 34014G21KT 10SM SCT060 SCT080 12/03 A2972 =
2014-04-23 04:18 METAR KESN 230822Z AUTO 34014G21KT 10SM SCT060 SCT080 12/03 A2972 RMK AO2
                 T01210031 =
2014-04-23 04:02 METAR KESN 230802Z AUTO 34018G25KT 10SM BKN060 13/03 A2972 RMK AO2 T01290031 =
2014-04-23 03:42 METAR KESN 230742Z AUTO 34011G20KT 10SM BKN060 13/04 A2971 RMK AO2 T01310036 =
2014-04-23 03:22 METAR KESN 230722Z AUTO 33016G24KT 10SM OVC060 14/04 A2971 =
2014-04-23 03:21 METAR KESN 230722Z AUTO 33016G24KT 10SM OVC060 14/04 A2971 RMK AO2 T01350036 =
2014-04-23 03:02 METAR KESN 230702Z AUTO 33016G22KT 10SM OVC050 14/04 A2971 =
2014-04-23 03:01 METAR KESN 230702Z AUTO 33016G22KT 10SM OVC050 14/04 A2971 RMK AO2 T01360043 =
2014-04-23 02:42 METAR KESN 230642Z AUTO 34016G27KT 10SM OVC050 14/06 A2971 =
2014-04-23 02:41 METAR KESN 230642Z AUTO 34016G27KT 10SM OVC050 14/06 A2971 RMK AO2 T01420057 =
2014-04-23 02:22 METAR KESN 230622Z AUTO 35013G21KT 10SM OVC050 15/09 A2970 =
2014-04-23 02:21 METAR KESN 230622Z AUTO 35013G21KT 10SM OVC050 15/09 A2970 RMK AO2 T01480085 =
2014-04-23 02:02 METAR KESN 230602Z AUTO 35009KT 10SM OVC050 15/11 A2969 RMK AO2 T01540105 =
2014-04-23 01:42 METAR KESN 230542Z AUTO 34007KT 10SM BKN050 15/13 A2968 =
2014-04-23 01:41 METAR KESN 230542Z AUTO 34007KT 10SM BKN050 15/13 A2968 RMK AO2 T01480125 =
2014-04-23 01:22 METAR KESN 230522Z AUTO 29004KT 10SM BKN050 14/13 A2968 RMK AO2 T01390128 =
2014-04-23 01:02 METAR KESN 230502Z AUTO 00000KT 10SM CLR 13/13 A2967 RMK AO2 T01310128 =
2014-04-23 00:42 METAR KESN 230442Z AUTO 00000KT 10SM CLR 14/12 A2966 =
2014-04-23 00:41 METAR KESN 230442Z AUTO 00000KT 10SM CLR 14/12 A2966 RMK AO2 T01380118 =
2014-04-23 00:22 METAR KESN 230422Z AUTO 00000KT 10SM CLR 14/12 A2966 =
2014-04-23 00:21 METAR KESN 230422Z AUTO 00000KT 10SM CLR 14/12 A2966 RMK AO2 T01360121 =
2014-04-23 00:02 METAR KESN 230402Z AUTO 00000KT 10SM CLR 15/12 A2965 RMK AO2 T01470115 =
2014-04-22 23:42 METAR KESN 230342Z AUTO 00000KT 10SM CLR 16/12 A2965 =
2014-04-22 23:41 METAR KESN 230342Z AUTO 00000KT 10SM CLR 16/12 A2965 RMK AO2 T01570115 =
2014-04-22 23:22 METAR KESN 230322Z AUTO 01003KT 10SM CLR 16/12 A2965 =
2014-04-22 23:21 METAR KESN 230322Z AUTO 01003KT 10SM CLR 16/12 A2965 RMK AO2 T01580115 =
2014-04-22 23:02 METAR KESN 230302Z AUTO 02006KT 10SM CLR 17/11 A2966 RMK AO2 T01650113 =
2014-04-22 22:42 METAR KESN 230242Z AUTO 02009KT 10SM CLR 17/12 A2966 RMK AO2 T01690123 =
2014-04-22 20:45 METAR KESN 230045Z 00000KT 10SM OVC080 18/17 A2964 =
2014-04-22 19:50 METAR KESN 222350Z 00000KT 10SM OVC110 19/14 A2963 =

Support USWX by starting your Amazon purchase here.